Pentress, West Virginia
Current Conditions -  °F | °C
As of 8:53 PM on Monday 24 Nov 2014 (Local Time) from KMGW Reporting Station
Clear Clear  
Wind Chill: 56°   Ceiling: Unl
Heat Index: 56°   Visibility: 10mi
Dew Point: 31°   Wind: 3mph
Humidity: 39%   Direction: NA
Pressure: 29.78"   Gusts: NA
Location:  39.71°N, 80.16°W
Report Text: KMGW 250153Z VRB03KT 10SM CLR 13/M01 A2978 RMK AO2 PRESRR SLP081 T01331006
Loading
Personal Weather Stations






























Interactive Weather Map New forecast layout! Learn more

10-Day Weather Forecast

Advertisements
Track Severe Weather on mobile